Grand Strand Airport North Myrtle Beach US
ICAO: KCRE
IATA: CRE
Category: Medium
Scheduled Services: No

Elevation: 32 ft
TransAlt. 18000 ft.

Airport Communications:
MYRTLE BEACH APP/DEP:119.2
ATIS:119.625
CTAF:124.6
STRAND GND:121.8
ANDERSON RDO:123.6
STRAND TWR:124.6
UNICOM:122.95

KCRE Zoom In..

If you have problems with the map follow the link
https://www.worldairports.se/pages/airport.php?
ICAO=KCRE

Runways:

(A) RW 05 length 5997 ft width 100 ft
---- / hdg 54

(B) RW 23 length 5997 ft width 100 ft
ILS 111.70 / hdg 234

Location; KCRE
Day. 16 / Time. 02.53 Zulu
* Altimeter: 29.96
* Temperature: 07° c. 44.6°f.
* Wind from: 290° Speed 10 kn with Gusts up to 16 kn.
Dewpoint: 04° c.
Visibility: 10 Statute Miles.
Clouds: Overcast 1600 ft.

KCRE 160253Z AUTO 29010G16KT 10SM OVC016 07/04 A2996 RMK AO1 SLP147 T00720044 53011


Wind From 290°
Speed 10 kn.

 
 
jpsmedia.com for Web Design worldairports.se 2018   terms of use